sensor_id;sensor_type;location;lat;lon;timestamp;pressure;altitude;pressure_sealevel;temperature;humidity
21240;BME280;10778;48.962;9.018;2023-08-24T00:00:11;99288.72;;;17.35;100.00
21240;BME280;10778;48.962;9.018;2023-08-24T00:02:37;99275.16;;;17.45;100.00
21240;BME280;10778;48.962;9.018;2023-08-24T00:05:04;99266.56;;;17.43;100.00
21240;BME280;10778;48.962;9.018;2023-08-24T00:07:31;99269.00;;;17.30;100.00
21240;BME280;10778;48.962;9.018;2023-08-24T00:09:58;99272.53;;;17.22;100.00
21240;BME280;10778;48.962;9.018;2023-08-24T00:12:24;99262.97;;;17.13;100.00
21240;BME280;10778;48.962;9.018;2023-08-24T00:14:50;99263.31;;;17.10;100.00
21240;BME280;10778;48.962;9.018;2023-08-24T00:17:16;99262.78;;;17.14;100.00
21240;BME280;10778;48.962;9.018;2023-08-24T00:19:42;99258.56;;;17.20;100.00
21240;BME280;10778;48.962;9.018;2023-08-24T00:22:08;99262.56;;;17.24;100.00
21240;BME280;10778;48.962;9.018;2023-08-24T00:24:34;99253.94;;;17.22;100.00
21240;BME280;10778;48.962;9.018;2023-08-24T00:27:00;99258.56;;;17.20;100.00
21240;BME280;10778;48.962;9.018;2023-08-24T00:29:27;99258.47;;;17.13;100.00
21240;BME280;10778;48.962;9.018;2023-08-24T00:31:52;99255.81;;;17.13;100.00
21240;BME280;10778;48.962;9.018;2023-08-24T00:34:18;99254.22;;;17.04;100.00
21240;BME280;10778;48.962;9.018;2023-08-24T00:36:44;99245.94;;;16.99;100.00
21240;BME280;10778;48.962;9.018;2023-08-24T00:39:11;99242.28;;;17.00;100.00
21240;BME280;10778;48.962;9.018;2023-08-24T00:41:37;99233.59;;;17.06;100.00
21240;BME280;10778;48.962;9.018;2023-08-24T00:44:03;99240.63;;;16.99;100.00
21240;BME280;10778;48.962;9.018;2023-08-24T00:46:31;99237.31;;;16.97;100.00
21240;BME280;10778;48.962;9.018;2023-08-24T00:48:57;99230.84;;;16.91;100.00
21240;BME280;10778;48.962;9.018;2023-08-24T00:51:24;99232.53;;;16.84;100.00
21240;BME280;10778;48.962;9.018;2023-08-24T00:53:50;99232.03;;;16.88;100.00
21240;BME280;10778;48.962;9.018;2023-08-24T00:56:17;99217.09;;;16.87;100.00
21240;BME280;10778;48.962;9.018;2023-08-24T00:58:46;99211.75;;;16.87;100.00
21240;BME280;10778;48.962;9.018;2023-08-24T01:01:13;99215.31;;;16.80;100.00
21240;BME280;10778;48.962;9.018;2023-08-24T01:03:41;99219.88;;;16.94;100.00
21240;BME280;10778;48.962;9.018;2023-08-24T01:06:07;99213.34;;;17.05;100.00
21240;BME280;10778;48.962;9.018;2023-08-24T01:08:33;99215.19;;;16.96;100.00
21240;BME280;10778;48.962;9.018;2023-08-24T01:16:19;99205.97;;;16.84;100.00
21240;BME280;10778;48.962;9.018;2023-08-24T01:18:46;99205.16;;;16.83;100.00
21240;BME280;10778;48.962;9.018;2023-08-24T01:21:14;99206.94;;;16.91;100.00
21240;BME280;10778;48.962;9.018;2023-08-24T01:24:07;99209.47;;;16.84;100.00
21240;BME280;10778;48.962;9.018;2023-08-24T01:26:37;99204.91;;;16.70;100.00
21240;BME280;10778;48.962;9.018;2023-08-24T01:29:04;99219.97;;;16.77;100.00
21240;BME280;10778;48.962;9.018;2023-08-24T01:31:31;99218.97;;;16.78;100.00
21240;BME280;10778;48.962;9.018;2023-08-24T01:33:57;99226.56;;;16.82;100.00
21240;BME280;10778;48.962;9.018;2023-08-24T01:36:23;99230.06;;;16.82;100.00
21240;BME280;10778;48.962;9.018;2023-08-24T01:38:59;99224.56;;;16.84;100.00
21240;BME280;10778;48.962;9.018;2023-08-24T01:41:35;99233.38;;;16.84;100.00
21240;BME280;10778;48.962;9.018;2023-08-24T01:44:09;99238.56;;;16.77;100.00
21240;BME280;10778;48.962;9.018;2023-08-24T01:46:39;99234.41;;;16.75;100.00
21240;BME280;10778;48.962;9.018;2023-08-24T01:49:07;99248.25;;;16.70;100.00
21240;BME280;10778;48.962;9.018;2023-08-24T01:51:35;99246.69;;;16.76;100.00
21240;BME280;10778;48.962;9.018;2023-08-24T01:54:01;99247.84;;;16.82;100.00
21240;BME280;10778;48.962;9.018;2023-08-24T01:56:27;99245.38;;;16.80;100.00
21240;BME280;10778;48.962;9.018;2023-08-24T01:58:53;99247.69;;;16.75;100.00
21240;BME280;10778;48.962;9.018;2023-08-24T02:01:19;99243.03;;;16.77;100.00
21240;BME280;10778;48.962;9.018;2023-08-24T02:03:45;99239.41;;;16.78;100.00
21240;BME280;10778;48.962;9.018;2023-08-24T02:06:11;99242.09;;;16.70;100.00
21240;BME280;10778;48.962;9.018;2023-08-24T02:08:38;99244.25;;;16.66;100.00
21240;BME280;10778;48.962;9.018;2023-08-24T02:11:04;99231.94;;;16.73;100.00
21240;BME280;10778;48.962;9.018;2023-08-24T02:13:32;99232.41;;;16.77;100.00
21240;BME280;10778;48.962;9.018;2023-08-24T02:16:05;99224.41;;;16.85;100.00
21240;BME280;10778;48.962;9.018;2023-08-24T02:18:32;99218.94;;;16.87;100.00
21240;BME280;10778;48.962;9.018;2023-08-24T02:20:58;99219.03;;;16.70;100.00
21240;BME280;10778;48.962;9.018;2023-08-24T02:23:24;99211.38;;;16.67;100.00
21240;BME280;10778;48.962;9.018;2023-08-24T02:25:50;99209.28;;;16.62;100.00
21240;BME280;10778;48.962;9.018;2023-08-24T02:28:16;99217.09;;;16.56;100.00
21240;BME280;10778;48.962;9.018;2023-08-24T02:30:42;99211.78;;;16.56;100.00
21240;BME280;10778;48.962;9.018;2023-08-24T02:33:08;99217.75;;;16.58;100.00
21240;BME280;10778;48.962;9.018;2023-08-24T02:35:34;99220.97;;;16.45;100.00
21240;BME280;10778;48.962;9.018;2023-08-24T02:38:00;99216.00;;;16.42;100.00
21240;BME280;10778;48.962;9.018;2023-08-24T02:40:26;99209.16;;;16.47;100.00
21240;BME280;10778;48.962;9.018;2023-08-24T02:42:52;99196.16;;;16.29;100.00
21240;BME280;10778;48.962;9.018;2023-08-24T02:45:19;99202.13;;;16.23;100.00
21240;BME280;10778;48.962;9.018;2023-08-24T02:47:45;99208.78;;;16.27;100.00
21240;BME280;10778;48.962;9.018;2023-08-24T02:50:11;99219.19;;;16.37;100.00
21240;BME280;10778;48.962;9.018;2023-08-24T02:52:37;99222.44;;;16.47;100.00
21240;BME280;10778;48.962;9.018;2023-08-24T02:55:03;99218.44;;;16.52;100.00
21240;BME280;10778;48.962;9.018;2023-08-24T02:57:29;99219.44;;;16.50;100.00
21240;BME280;10778;48.962;9.018;2023-08-24T02:59:55;99217.47;;;16.53;100.00
21240;BME280;10778;48.962;9.018;2023-08-24T03:02:22;99212.47;;;16.49;100.00
21240;BME280;10778;48.962;9.018;2023-08-24T03:04:48;99210.44;;;16.60;100.00
21240;BME280;10778;48.962;9.018;2023-08-24T03:07:14;99207.28;;;16.56;100.00
21240;BME280;10778;48.962;9.018;2023-08-24T03:09:40;99205.88;;;16.45;100.00
21240;BME280;10778;48.962;9.018;2023-08-24T03:12:06;99209.34;;;16.46;100.00
21240;BME280;10778;48.962;9.018;2023-08-24T03:14:32;99195.44;;;16.44;100.00
21240;BME280;10778;48.962;9.018;2023-08-24T03:16:59;99186.78;;;16.42;100.00
21240;BME280;10778;48.962;9.018;2023-08-24T03:19:25;99176.84;;;16.44;100.00
21240;BME280;10778;48.962;9.018;2023-08-24T03:21:52;99169.34;;;16.47;100.00
21240;BME280;10778;48.962;9.018;2023-08-24T03:24:18;99171.34;;;16.45;100.00
21240;BME280;10778;48.962;9.018;2023-08-24T03:26:44;99171.91;;;16.32;100.00
21240;BME280;10778;48.962;9.018;2023-08-24T03:29:10;99168.47;;;16.24;100.00
21240;BME280;10778;48.962;9.018;2023-08-24T03:31:36;99175.13;;;16.19;100.00
21240;BME280;10778;48.962;9.018;2023-08-24T03:34:02;99164.31;;;16.21;100.00
21240;BME280;10778;48.962;9.018;2023-08-24T03:36:29;99164.31;;;16.29;100.00
21240;BME280;10778;48.962;9.018;2023-08-24T03:38:55;99157.47;;;16.35;100.00
21240;BME280;10778;48.962;9.018;2023-08-24T03:41:22;99148.78;;;16.41;100.00
21240;BME280;10778;48.962;9.018;2023-08-24T03:43:48;99145.06;;;16.50;100.00
21240;BME280;10778;48.962;9.018;2023-08-24T03:46:14;99152.34;;;16.57;100.00
21240;BME280;10778;48.962;9.018;2023-08-24T03:48:42;99151.00;;;16.61;100.00
21240;BME280;10778;48.962;9.018;2023-08-24T03:51:08;99158.31;;;16.59;100.00
21240;BME280;10778;48.962;9.018;2023-08-24T03:53:36;99154.03;;;16.49;100.00
21240;BME280;10778;48.962;9.018;2023-08-24T03:56:02;99151.59;;;16.48;100.00
21240;BME280;10778;48.962;9.018;2023-08-24T03:58:28;99147.97;;;16.41;100.00
21240;BME280;10778;48.962;9.018;2023-08-24T04:00:54;99139.81;;;16.42;100.00
21240;BME280;10778;48.962;9.018;2023-08-24T04:03:21;99130.78;;;16.52;100.00
21240;BME280;10778;48.962;9.018;2023-08-24T04:05:47;99133.00;;;16.48;100.00
21240;BME280;10778;48.962;9.018;2023-08-24T04:08:13;99132.47;;;16.53;100.00
21240;BME280;10778;48.962;9.018;2023-08-24T04:10:39;99129.09;;;16.59;100.00
21240;BME280;10778;48.962;9.018;2023-08-24T04:13:05;99128.25;;;16.58;100.00
21240;BME280;10778;48.962;9.018;2023-08-24T04:15:31;99130.59;;;16.61;100.00
21240;BME280;10778;48.962;9.018;2023-08-24T04:17:57;99131.56;;;16.60;100.00
21240;BME280;10778;48.962;9.018;2023-08-24T04:20:23;99124.97;;;16.56;100.00
21240;BME280;10778;48.962;9.018;2023-08-24T04:22:49;99132.41;;;16.61;100.00
21240;BME280;10778;48.962;9.018;2023-08-24T04:25:15;99125.44;;;16.60;100.00
21240;BME280;10778;48.962;9.018;2023-08-24T04:27:41;99123.06;;;16.65;100.00
21240;BME280;10778;48.962;9.018;2023-08-24T04:30:08;99119.13;;;16.61;100.00
21240;BME280;10778;48.962;9.018;2023-08-24T04:32:37;99116.63;;;16.59;100.00
21240;BME280;10778;48.962;9.018;2023-08-24T04:35:03;99109.78;;;16.65;100.00
21240;BME280;10778;48.962;9.018;2023-08-24T04:37:29;99110.91;;;16.71;100.00
21240;BME280;10778;48.962;9.018;2023-08-24T04:39:55;99113.94;;;16.68;100.00
21240;BME280;10778;48.962;9.018;2023-08-24T04:42:21;99107.25;;;16.72;100.00
21240;BME280;10778;48.962;9.018;2023-08-24T04:44:47;99104.44;;;16.73;100.00
21240;BME280;10778;48.962;9.018;2023-08-24T04:47:13;99109.91;;;16.72;100.00
21240;BME280;10778;48.962;9.018;2023-08-24T04:49:39;99113.09;;;16.67;100.00
21240;BME280;10778;48.962;9.018;2023-08-24T04:52:06;99119.78;;;16.63;100.00
21240;BME280;10778;48.962;9.018;2023-08-24T04:54:32;99126.22;;;16.69;100.00
21240;BME280;10778;48.962;9.018;2023-08-24T04:56:58;99116.06;;;16.72;100.00
21240;BME280;10778;48.962;9.018;2023-08-24T04:59:24;99118.28;;;16.84;100.00
21240;BME280;10778;48.962;9.018;2023-08-24T05:01:50;99110.66;;;16.81;100.00
21240;BME280;10778;48.962;9.018;2023-08-24T05:04:16;99113.44;;;16.87;100.00
21240;BME280;10778;48.962;9.018;2023-08-24T05:06:42;99100.28;;;16.94;100.00
21240;BME280;10778;48.962;9.018;2023-08-24T05:09:08;99099.78;;;16.99;100.00
21240;BME280;10778;48.962;9.018;2023-08-24T05:11:34;99098.50;;;17.10;100.00
21240;BME280;10778;48.962;9.018;2023-08-24T05:14:00;99098.13;;;17.13;100.00
21240;BME280;10778;48.962;9.018;2023-08-24T05:16:26;99089.09;;;17.22;100.00
21240;BME280;10778;48.962;9.018;2023-08-24T05:18:53;99092.22;;;17.41;100.00
21240;BME280;10778;48.962;9.018;2023-08-24T05:21:19;99085.72;;;17.58;100.00
21240;BME280;10778;48.962;9.018;2023-08-24T05:23:45;99086.81;;;17.64;100.00
21240;BME280;10778;48.962;9.018;2023-08-24T05:26:11;99078.16;;;17.77;100.00
21240;BME280;10778;48.962;9.018;2023-08-24T05:28:37;99075.59;;;17.84;100.00
21240;BME280;10778;48.962;9.018;2023-08-24T05:31:03;99074.19;;;17.88;100.00
21240;BME280;10778;48.962;9.018;2023-08-24T05:33:29;99070.09;;;17.70;100.00
21240;BME280;10778;48.962;9.018;2023-08-24T05:35:56;99081.44;;;18.09;100.00
21240;BME280;10778;48.962;9.018;2023-08-24T05:38:23;99076.94;;;17.95;100.00
21240;BME280;10778;48.962;9.018;2023-08-24T05:40:49;99074.47;;;18.08;100.00
21240;BME280;10778;48.962;9.018;2023-08-24T05:43:15;99070.84;;;18.81;100.00
21240;BME280;10778;48.962;9.018;2023-08-24T05:45:42;99075.59;;;19.36;100.00
21240;BME280;10778;48.962;9.018;2023-08-24T05:48:10;99080.84;;;20.00;96.28
21240;BME280;10778;48.962;9.018;2023-08-24T05:50:42;99078.50;;;20.39;92.81
21240;BME280;10778;48.962;9.018;2023-08-24T05:53:08;99078.72;;;20.78;91.47
21240;BME280;10778;48.962;9.018;2023-08-24T05:55:34;99071.50;;;21.32;87.61
21240;BME280;10778;48.962;9.018;2023-08-24T05:58:00;99074.75;;;21.54;87.49
21240;BME280;10778;48.962;9.018;2023-08-24T06:00:26;99073.69;;;22.14;84.07
21240;BME280;10778;48.962;9.018;2023-08-24T06:02:52;99069.63;;;22.44;82.14
21240;BME280;10778;48.962;9.018;2023-08-24T06:05:18;99071.50;;;22.94;80.40
21240;BME280;10778;48.962;9.018;2023-08-24T06:07:44;99075.84;;;22.95;80.55
21240;BME280;10778;48.962;9.018;2023-08-24T06:10:11;99085.31;;;22.40;81.60
21240;BME280;10778;48.962;9.018;2023-08-24T06:12:38;99081.19;;;21.99;83.58
21240;BME280;10778;48.962;9.018;2023-08-24T06:15:05;99091.16;;;21.65;85.00
21240;BME280;10778;48.962;9.018;2023-08-24T06:17:33;99097.47;;;20.91;90.11
21240;BME280;10778;48.962;9.018;2023-08-24T06:20:04;99092.53;;;20.95;90.02
21240;BME280;10778;48.962;9.018;2023-08-24T06:22:30;99101.34;;;20.68;92.30
21240;BME280;10778;48.962;9.018;2023-08-24T06:24:56;99112.19;;;20.40;94.55
21240;BME280;10778;48.962;9.018;2023-08-24T06:27:25;99127.97;;;20.28;96.27
21240;BME280;10778;48.962;9.018;2023-08-24T06:29:52;99140.88;;;20.11;97.19
21240;BME280;10778;48.962;9.018;2023-08-24T06:32:18;99147.75;;;19.92;99.90
21240;BME280;10778;48.962;9.018;2023-08-24T06:34:44;99148.03;;;20.03;98.71
21240;BME280;10778;48.962;9.018;2023-08-24T06:37:10;99157.41;;;19.93;97.88
21240;BME280;10778;48.962;9.018;2023-08-24T06:39:36;99169.06;;;19.85;100.00
21240;BME280;10778;48.962;9.018;2023-08-24T06:42:02;99173.59;;;19.84;100.00
21240;BME280;10778;48.962;9.018;2023-08-24T06:44:30;99179.81;;;19.92;100.00
21240;BME280;10778;48.962;9.018;2023-08-24T06:46:56;99170.41;;;20.02;98.22
21240;BME280;10778;48.962;9.018;2023-08-24T06:49:22;99164.72;;;20.12;96.63
21240;BME280;10778;48.962;9.018;2023-08-24T06:51:48;99168.13;;;20.48;95.62
21240;BME280;10778;48.962;9.018;2023-08-24T06:54:14;99168.25;;;20.82;94.65
21240;BME280;10778;48.962;9.018;2023-08-24T06:56:41;99158.56;;;20.87;91.10
21240;BME280;10778;48.962;9.018;2023-08-24T06:59:07;99137.38;;;21.40;89.68
21240;BME280;10778;48.962;9.018;2023-08-24T07:01:33;99117.91;;;21.92;86.53
21240;BME280;10778;48.962;9.018;2023-08-24T07:03:59;99109.88;;;21.85;86.45
21240;BME280;10778;48.962;9.018;2023-08-24T07:06:25;99096.56;;;21.58;88.77
21240;BME280;10778;48.962;9.018;2023-08-24T07:08:51;99083.59;;;21.55;86.80
21240;BME280;10778;48.962;9.018;2023-08-24T07:11:17;99074.53;;;21.56;86.35
21240;BME280;10778;48.962;9.018;2023-08-24T07:13:43;99077.59;;;21.59;87.07
21240;BME280;10778;48.962;9.018;2023-08-24T07:16:10;99088.72;;;21.63;85.19
21240;BME280;10778;48.962;9.018;2023-08-24T07:18:36;99091.84;;;21.53;84.29
21240;BME280;10778;48.962;9.018;2023-08-24T07:21:02;99107.03;;;21.80;81.12
21240;BME280;10778;48.962;9.018;2023-08-24T07:23:28;99113.38;;;22.70;79.99
21240;BME280;10778;48.962;9.018;2023-08-24T07:25:54;99105.50;;;23.00;76.46
21240;BME280;10778;48.962;9.018;2023-08-24T07:28:20;99101.78;;;23.27;76.59
21240;BME280;10778;48.962;9.018;2023-08-24T07:30:46;99089.03;;;23.22;76.84
21240;BME280;10778;48.962;9.018;2023-08-24T07:33:12;99086.84;;;23.12;76.49
21240;BME280;10778;48.962;9.018;2023-08-24T07:35:38;99083.22;;;24.61;73.42
21240;BME280;10778;48.962;9.018;2023-08-24T07:38:05;99094.75;;;25.04;71.58
21240;BME280;10778;48.962;9.018;2023-08-24T07:40:31;99096.34;;;25.41;67.40
21240;BME280;10778;48.962;9.018;2023-08-24T07:42:57;99082.66;;;25.66;66.88
21240;BME280;10778;48.962;9.018;2023-08-24T07:45:23;99081.41;;;25.57;66.35
21240;BME280;10778;48.962;9.018;2023-08-24T07:47:49;99080.69;;;26.03;65.81
21240;BME280;10778;48.962;9.018;2023-08-24T07:50:15;99086.72;;;25.81;66.42
21240;BME280;10778;48.962;9.018;2023-08-24T07:52:42;99087.25;;;26.53;63.28
21240;BME280;10778;48.962;9.018;2023-08-24T07:55:08;99081.78;;;26.48;63.41
21240;BME280;10778;48.962;9.018;2023-08-24T07:57:36;99086.38;;;26.18;63.50
21240;BME280;10778;48.962;9.018;2023-08-24T08:00:04;99095.22;;;26.31;63.60
21240;BME280;10778;48.962;9.018;2023-08-24T08:02:38;99080.91;;;26.93;60.49
21240;BME280;10778;48.962;9.018;2023-08-24T08:05:05;99086.41;;;26.98;61.15
21240;BME280;10778;48.962;9.018;2023-08-24T08:07:34;99080.72;;;27.57;58.98
21240;BME280;10778;48.962;9.018;2023-08-24T08:10:00;99076.16;;;27.40;59.57
21240;BME280;10778;48.962;9.018;2023-08-24T08:12:26;99074.75;;;27.77;57.51
21240;BME280;10778;48.962;9.018;2023-08-24T08:14:52;99063.53;;;28.40;56.08
21240;BME280;10778;48.962;9.018;2023-08-24T08:17:18;99071.50;;;28.24;56.42
21240;BME280;10778;48.962;9.018;2023-08-24T08:19:43;99068.84;;;28.30;57.56
21240;BME280;10778;48.962;9.018;2023-08-24T08:22:09;99072.84;;;28.54;55.47
21240;BME280;10778;48.962;9.018;2023-08-24T08:24:35;99079.50;;;28.42;55.71
21240;BME280;10778;48.962;9.018;2023-08-24T08:27:01;99083.91;;;28.20;57.28
21240;BME280;10778;48.962;9.018;2023-08-24T08:29:28;99078.31;;;28.32;56.52
21240;BME280;10778;48.962;9.018;2023-08-24T08:31:54;99076.44;;;28.33;55.78
21240;BME280;10778;48.962;9.018;2023-08-24T08:34:20;99065.16;;;28.41;56.02
21240;BME280;10778;48.962;9.018;2023-08-24T08:36:46;99066.41;;;28.06;55.32
21240;BME280;10778;48.962;9.018;2023-08-24T08:39:12;99061.16;;;29.19;53.67
21240;BME280;10778;48.962;9.018;2023-08-24T08:41:43;99067.06;;;29.16;53.50
21240;BME280;10778;48.962;9.018;2023-08-24T08:44:13;99069.78;;;29.11;53.45
21240;BME280;10778;48.962;9.018;2023-08-24T08:46:40;99072.75;;;29.63;52.89
21240;BME280;10778;48.962;9.018;2023-08-24T08:49:07;99067.25;;;29.42;52.58
21240;BME280;10778;48.962;9.018;2023-08-24T08:51:36;99064.06;;;29.56;53.13
21240;BME280;10778;48.962;9.018;2023-08-24T08:54:03;99059.25;;;29.20;52.55
21240;BME280;10778;48.962;9.018;2023-08-24T08:56:34;99056.75;;;29.61;51.75
21240;BME280;10778;48.962;9.018;2023-08-24T08:59:00;99047.13;;;29.33;52.87
21240;BME280;10778;48.962;9.018;2023-08-24T09:01:28;99047.09;;;29.91;50.93
21240;BME280;10778;48.962;9.018;2023-08-24T09:03:54;99052.00;;;30.00;51.75
21240;BME280;10778;48.962;9.018;2023-08-24T09:06:22;99051.06;;;29.68;51.89
21240;BME280;10778;48.962;9.018;2023-08-24T09:08:49;99037.16;;;30.23;51.72
21240;BME280;10778;48.962;9.018;2023-08-24T09:11:15;99023.75;;;29.85;51.66
21240;BME280;10778;48.962;9.018;2023-08-24T09:13:43;99022.47;;;30.19;51.35
21240;BME280;10778;48.962;9.018;2023-08-24T09:16:09;99017.84;;;30.04;50.52
21240;BME280;10778;48.962;9.018;2023-08-24T09:18:43;99011.06;;;30.12;51.32
21240;BME280;10778;48.962;9.018;2023-08-24T09:21:10;99009.97;;;30.18;51.18
21240;BME280;10778;48.962;9.018;2023-08-24T09:23:38;98999.97;;;30.13;52.90
21240;BME280;10778;48.962;9.018;2023-08-24T09:26:08;98988.28;;;30.33;51.24
21240;BME280;10778;48.962;9.018;2023-08-24T09:28:34;98977.94;;;29.99;51.32
21240;BME280;10778;48.962;9.018;2023-08-24T09:31:02;98975.53;;;30.13;52.04
21240;BME280;10778;48.962;9.018;2023-08-24T09:33:29;98965.03;;;31.14;49.74
21240;BME280;10778;48.962;9.018;2023-08-24T09:35:55;98963.22;;;30.99;49.97
21240;BME280;10778;48.962;9.018;2023-08-24T09:38:27;98965.34;;;31.07;51.06
21240;BME280;10778;48.962;9.018;2023-08-24T09:40:55;98962.22;;;30.63;51.68
21240;BME280;10778;48.962;9.018;2023-08-24T09:43:21;98956.47;;;30.80;50.03
21240;BME280;10778;48.962;9.018;2023-08-24T09:48:18;98938.88;;;30.47;51.37
21240;BME280;10778;48.962;9.018;2023-08-24T09:50:45;98928.56;;;30.49;51.85
21240;BME280;10778;48.962;9.018;2023-08-24T09:53:17;98917.59;;;30.96;50.20
21240;BME280;10778;48.962;9.018;2023-08-24T09:58:17;98905.56;;;31.07;49.35
21240;BME280;10778;48.962;9.018;2023-08-24T10:00:45;98897.09;;;31.19;50.10
21240;BME280;10778;48.962;9.018;2023-08-24T10:03:16;98898.53;;;31.01;49.42
21240;BME280;10778;48.962;9.018;2023-08-24T10:05:53;98889.81;;;31.09;50.70
21240;BME280;10778;48.962;9.018;2023-08-24T10:08:36;98888.25;;;30.92;49.37
21240;BME280;10778;48.962;9.018;2023-08-24T10:11:03;98886.63;;;30.91;51.13
21240;BME280;10778;48.962;9.018;2023-08-24T10:13:44;98877.25;;;31.63;50.98
21240;BME280;10778;48.962;9.018;2023-08-24T10:16:13;98876.66;;;31.72;49.18
21240;BME280;10778;48.962;9.018;2023-08-24T10:18:40;98872.03;;;32.37;48.91
21240;BME280;10778;48.962;9.018;2023-08-24T10:21:07;98876.56;;;32.17;47.32
21240;BME280;10778;48.962;9.018;2023-08-24T10:23:34;98863.44;;;31.60;48.64
21240;BME280;10778;48.962;9.018;2023-08-24T10:26:02;98863.00;;;31.77;49.20
21240;BME280;10778;48.962;9.018;2023-08-24T10:28:29;98856.81;;;32.06;48.51
21240;BME280;10778;48.962;9.018;2023-08-24T10:30:58;98858.47;;;31.67;48.75
21240;BME280;10778;48.962;9.018;2023-08-24T10:33:26;98848.97;;;31.64;48.35
21240;BME280;10778;48.962;9.018;2023-08-24T10:35:52;98843.22;;;31.31;49.35
21240;BME280;10778;48.962;9.018;2023-08-24T10:38:23;98841.97;;;31.93;48.65
21240;BME280;10778;48.962;9.018;2023-08-24T10:40:51;98848.63;;;31.71;48.78
21240;BME280;10778;48.962;9.018;2023-08-24T10:43:17;98840.97;;;31.44;49.88
21240;BME280;10778;48.962;9.018;2023-08-24T10:45:57;98832.03;;;31.78;49.84
21240;BME280;10778;48.962;9.018;2023-08-24T10:49:10;98831.47;;;32.11;49.49
21240;BME280;10778;48.962;9.018;2023-08-24T10:53:40;98822.25;;;31.42;51.29
21240;BME280;10778;48.962;9.018;2023-08-24T10:56:13;98820.50;;;31.17;50.72
21240;BME280;10778;48.962;9.018;2023-08-24T10:58:39;98802.66;;;31.40;50.61
21240;BME280;10778;48.962;9.018;2023-08-24T11:01:05;98796.00;;;31.57;50.41
21240;BME280;10778;48.962;9.018;2023-08-24T11:03:31;98800.78;;;31.70;51.16
21240;BME280;10778;48.962;9.018;2023-08-24T11:05:58;98789.72;;;31.91;49.82
21240;BME280;10778;48.962;9.018;2023-08-24T11:08:44;98792.72;;;32.19;50.28
21240;BME280;10778;48.962;9.018;2023-08-24T11:11:23;98792.03;;;32.32;49.57
21240;BME280;10778;48.962;9.018;2023-08-24T11:14:18;98786.56;;;32.08;51.61
21240;BME280;10778;48.962;9.018;2023-08-24T11:17:00;98793.31;;;32.40;50.26
21240;BME280;10778;48.962;9.018;2023-08-24T11:19:26;98788.66;;;32.41;49.87
21240;BME280;10778;48.962;9.018;2023-08-24T11:21:53;98782.44;;;32.40;50.38
21240;BME280;10778;48.962;9.018;2023-08-24T11:24:19;98774.47;;;32.44;49.95
21240;BME280;10778;48.962;9.018;2023-08-24T11:26:46;98768.22;;;32.19;50.96
21240;BME280;10778;48.962;9.018;2023-08-24T11:29:13;98766.31;;;32.44;50.10
21240;BME280;10778;48.962;9.018;2023-08-24T11:31:41;98762.50;;;32.64;49.37
21240;BME280;10778;48.962;9.018;2023-08-24T11:34:07;98752.59;;;32.73;50.06
21240;BME280;10778;48.962;9.018;2023-08-24T11:39:15;98743.72;;;32.43;49.79
21240;BME280;10778;48.962;9.018;2023-08-24T11:41:42;98748.94;;;32.40;51.14
21240;BME280;10778;48.962;9.018;2023-08-24T11:44:08;98744.88;;;32.61;49.90
21240;BME280;10778;48.962;9.018;2023-08-24T11:46:36;98742.94;;;33.00;49.84
21240;BME280;10778;48.962;9.018;2023-08-24T11:49:06;98747.28;;;32.63;50.04
21240;BME280;10778;48.962;9.018;2023-08-24T11:52:09;98741.19;;;32.71;50.01
21240;BME280;10778;48.962;9.018;2023-08-24T11:54:36;98743.13;;;32.90;49.55
21240;BME280;10778;48.962;9.018;2023-08-24T11:57:07;98734.81;;;32.76;49.52
21240;BME280;10778;48.962;9.018;2023-08-24T11:59:35;98735.09;;;32.99;49.30
21240;BME280;10778;48.962;9.018;2023-08-24T12:02:02;98732.28;;;33.04;49.56
21240;BME280;10778;48.962;9.018;2023-08-24T12:04:28;98729.84;;;32.83;50.13
21240;BME280;10778;48.962;9.018;2023-08-24T12:07:11;98724.25;;;32.94;49.71
21240;BME280;10778;48.962;9.018;2023-08-24T12:09:39;98714.97;;;32.95;49.45
21240;BME280;10778;48.962;9.018;2023-08-24T12:12:05;98721.28;;;32.71;49.86
21240;BME280;10778;48.962;9.018;2023-08-24T12:14:47;98720.84;;;32.44;51.11
21240;BME280;10778;48.962;9.018;2023-08-24T12:17:14;98718.72;;;32.80;50.99
21240;BME280;10778;48.962;9.018;2023-08-24T12:19:44;98699.78;;;33.08;49.47
21240;BME280;10778;48.962;9.018;2023-08-24T12:22:15;98697.94;;;33.36;49.58
21240;BME280;10778;48.962;9.018;2023-08-24T12:24:46;98691.28;;;33.42;49.57
21240;BME280;10778;48.962;9.018;2023-08-24T12:27:25;98677.69;;;33.84;49.34
21240;BME280;10778;48.962;9.018;2023-08-24T12:29:52;98667.50;;;33.90;49.21
21240;BME280;10778;48.962;9.018;2023-08-24T12:32:19;98660.34;;;34.08;48.47
21240;BME280;10778;48.962;9.018;2023-08-24T12:34:46;98653.19;;;33.98;48.97
21240;BME280;10778;48.962;9.018;2023-08-24T12:37:12;98650.00;;;34.19;48.26
21240;BME280;10778;48.962;9.018;2023-08-24T12:39:39;98641.78;;;34.33;48.12
21240;BME280;10778;48.962;9.018;2023-08-24T12:42:05;98637.00;;;34.39;48.61
21240;BME280;10778;48.962;9.018;2023-08-24T12:44:32;98619.63;;;34.35;47.88
21240;BME280;10778;48.962;9.018;2023-08-24T12:46:59;98617.16;;;34.93;47.30
21240;BME280;10778;48.962;9.018;2023-08-24T12:49:25;98613.75;;;35.10;47.02
21240;BME280;10778;48.962;9.018;2023-08-24T12:51:51;98615.84;;;34.44;47.45
21240;BME280;10778;48.962;9.018;2023-08-24T12:54:17;98621.69;;;34.15;47.85
21240;BME280;10778;48.962;9.018;2023-08-24T12:56:43;98622.84;;;33.86;48.35
21240;BME280;10778;48.962;9.018;2023-08-24T12:59:09;98627.38;;;34.04;47.98
21240;BME280;10778;48.962;9.018;2023-08-24T13:01:35;98613.84;;;33.71;48.68
21240;BME280;10778;48.962;9.018;2023-08-24T13:04:01;98598.09;;;33.54;48.88
21240;BME280;10778;48.962;9.018;2023-08-24T13:06:28;98587.97;;;33.69;48.73
21240;BME280;10778;48.962;9.018;2023-08-24T13:08:53;98574.44;;;34.28;47.52
21240;BME280;10778;48.962;9.018;2023-08-24T13:11:21;98577.22;;;34.51;47.96